Flight Track Log - Related Links

Times and Time Zones

All times are in EDT time to prevent confusion due to time zone crossing. See the IWY5203 flight status page for this flight to view local times or setup timezone preferences in your user account.


Time Position Orientation Groundspeed Altitude Reporting Facility
EDT Latitude Longitude Course Direction KTS MPH feet Rate Location/Type
Fri 02:46:06 PM 21.7508 -72.2147 137° Southeast 199 229 2,400  Level Miami Center
Fri 02:47:06 PM 21.7206 -72.1844 137° Southeast 179 206 9,000 1,700 Climbing Miami Center
Fri 02:48:06 PM 21.6861 -72.1456 134° Southeast 173 199 5,800 -750 Descending Miami Center
Fri 02:49:06 PM 21.6514 -72.1067 134° Southeast 173 199 7,500 1,650 Climbing Miami Center
Fri 02:50:06 PM 21.6125 -72.0656 135° Southeast 179 206 9,100 1,550 Climbing Miami Center
Fri 02:51:00 PM 21.5421 -72.0088 137° Southeast  Level FlightAware Approximate
Fri 02:51:06 PM 21.5758 -72.0267 135° Southeast 179 206 10,600  Level Miami Center
Fri 02:52:06 PM 21.5392 -71.9858 134° Southeast 179 206 12,100 1,400 Climbing Miami Center
Fri 02:53:06 PM 21.4981 -71.9447 137° Southeast 190 219 13,400 1,250 Climbing Miami Center
Fri 02:54:06 PM 21.4572 -71.8994 134° Southeast 195 224 14,600 1,200 Climbing Miami Center
Fri 02:55:06 PM 21.4161 -71.8564 136° Southeast 201 231 15,800 1,100 Climbing Miami Center
Fri 02:56:06 PM 21.3728 -71.8092 135° Southeast 207 238 16,800 600 Climbing Miami Center
Fri 02:57:06 PM 21.3275 -71.7617 136° Southeast 213 245 17,000 100 Climbing Miami Center
Fri 02:58:06 PM 21.2756 -71.7058 135° Southeast 238 274 17,000  Level Miami Center
Fri 02:59:06 PM 21.2214 -71.6503 136° Southeast 258 297 17,000  Level Miami Center
Fri 03:00:06 PM 21.1650 -71.5878 134° Southeast 273 314 17,000  Level Miami Center
Fri 03:01:06 PM 21.1108 -71.5300 135° Southeast 278 320 17,000  Level Miami Center
Fri 03:02:06 PM 21.0547 -71.4700 135° Southeast 278 320 17,000  Level Miami Center
Fri 03:03:06 PM 20.9983 -71.4122 136° Southeast 283 326 17,000  Level Miami Center
Fri 03:04:06 PM 20.9419 -71.3522 135° Southeast 283 326 17,000  Level Miami Center
Fri 03:05:06 PM 20.8858 -71.2925 135° Southeast 283 326 17,000  Level Miami Center
Fri 03:06:06 PM 20.8292 -71.2306 134° Southeast 283 326 17,000  Level Miami Center
Fri 03:07:06 PM 20.7728 -71.1708 135° Southeast 283 326 17,000  Level Miami Center
Fri 03:08:06 PM 20.7164 -71.1133 136° Southeast 283 326 17,000  Level Miami Center
Fri 03:09:06 PM 20.6600 -71.0536 135° Southeast 283 326 17,000  Level Miami Center
Fri 03:10:06 PM 20.6056 -70.9917 133° Southeast 283 326 17,000  Level Miami Center
Fri 03:11:06 PM 20.5472 -70.9367 139° Southeast 283 326 17,000  Level Miami Center
Fri 03:12:06 PM 20.4906 -70.8728 133° Southeast 288 331 17,000  Level Miami Center
Fri 03:13:06 PM 20.4342 -70.8133 135° Southeast 288 331 17,000  Level Miami Center
Fri 03:15:00 PM 20.3485 -70.7611 163° South  Level FlightAware Approximate
Fri 03:22:00 PM 19.9830 -70.6422 163° South  Level FlightAware Approximate
Fri 03:23:00 PM 19.9307 -70.6252 163° South  Level FlightAware Approximate
Fri 03:24:00 PM 19.8785 -70.6083 163° South  Level FlightAware Approximate
Fri 03:25:00 PM 19.8263 -70.5914 163° South  Level FlightAware Approximate
Fri 03:26:00 PM 19.7740 -70.5744 163° South  Level FlightAware Approximate
Fri 03:27:00 PM 19.7250 -70.5500 148° Southeast  Level FlightAware Approximate
Fri 03:28:00 PM 19.6788 -70.5192 148° Southeast  Level FlightAware Approximate
Fri 03:29:00 PM 19.6326 -70.4883 148° Southeast  Level FlightAware Approximate
Fri 03:30:00 PM 19.5863 -70.4575 148° Southeast  Level FlightAware Approximate
Fri 03:31:00 PM 19.5404 -70.4261 145° Southeast  Level FlightAware Approximate
Fri 03:32:00 PM 19.4958 -70.3927 145° Southeast  Level FlightAware Approximate
Fri 03:33:00 PM 19.4513 -70.3593 145° Southeast  Level FlightAware Approximate
Fri 03:34:00 PM 19.4065 -70.3261 146° Southeast  Level FlightAware Approximate
Fri 03:35:00 PM 19.3611 -70.2940 146° Southeast  Level FlightAware Approximate
Fri 03:36:00 PM 19.3156 -70.2619 146° Southeast  Level FlightAware Approximate
Fri 03:37:00 PM 19.2702 -70.2298 146° Southeast  Level FlightAware Approximate
Fri 03:38:00 PM 19.2248 -70.1978 146° Southeast  Level FlightAware Approximate
Fri 03:39:00 PM 19.1793 -70.1657 146° Southeast  Level FlightAware Approximate
Fri 03:40:00 PM 19.1339 -70.1337 146° Southeast  Level FlightAware Approximate
Fri 03:41:00 PM 19.0855 -70.1070 148° Southeast  Level FlightAware Approximate
Fri 03:42:00 PM 19.0393 -70.0762 148° Southeast  Level FlightAware Approximate
Fri 03:43:00 PM 18.9931 -70.0454 148° Southeast  Level FlightAware Approximate
Fri 03:44:00 PM 18.9470 -70.0145 146° Southeast  Level FlightAware Approximate
Fri 03:45:00 PM 18.9015 -69.9827 146° Southeast  Level FlightAware Approximate
Fri 03:46:00 PM 18.8559 -69.9508 146° Southeast  Level FlightAware Approximate
Fri 03:47:00 PM 18.8104 -69.9189 146° Southeast  Level FlightAware Approximate
Fri 03:48:00 PM 18.7646 -69.8875 148° Southeast  Level FlightAware Approximate
Fri 03:49:00 PM 18.7185 -69.8567 148° Southeast  Level FlightAware Approximate
Fri 03:50:00 PM 18.6723 -69.8260 148° Southeast  Level FlightAware Approximate
Fri 03:51:00 PM 18.6261 -69.7952 148° Southeast  Level FlightAware Approximate
Fri 03:52:00 PM 18.5805 -69.7638 137° Southeast  Level FlightAware Approximate
Fri 03:53:00 PM 18.5376 -69.7282 145° Southeast  Level FlightAware Approximate
Fri 03:54:00 PM 18.4927 -69.6956 150° Southeast  Level FlightAware Approximate
Fri 03:55:00 PM 18.4452 -69.6671 150° Southeast  Level FlightAware Approximate
Fri 03:56:00 PM 18.4297 -69.6689 150° Southeast  Level Estimated
Fri 03:57:00 PM 18.4297 -69.6689 150° Southeast  Level Estimated
Fri 03:58:00 PM 18.4297 -69.6689 150° Southeast  Level Estimated
Fri 03:59:00 PM 18.4297 -69.6689 150° Southeast  Level Estimated
Fri 04:00:00 PM 18.4297 -69.6689 150° Southeast  Level Estimated
Fri 04:01:00 PM 18.4297 -69.6689 150° Southeast  Level Estimated
Fri 04:02:00 PM 18.4297 -69.6689 150° Southeast  Level Estimated
Fri 04:03:00 PM 18.4297 -69.6689 150° Southeast  Level Estimated
Fri 04:04:00 PM 18.4297 -69.6689 150° Southeast  Level Estimated
Fri 04:05:00 PM 18.4297 -69.6689 150° Southeast  Level Estimated
Fri 04:06:00 PM 18.4297 -69.6689 150° Southeast  Level Estimated
Fri 04:07:00 PM 18.4297 -69.6689 150° Southeast  Level Estimated
Fri 04:08:00 PM 18.4297 -69.6689 150° Southeast  Level Estimated
Fri 04:09:00 PM 18.4297 -69.6689 150° Southeast  Level Estimated
Fri 04:10:00 PM 18.4297 -69.6689 150° Southeast  Level Estimated
Fri 04:11:00 PM 18.4297 -69.6689 150° Southeast  Level Estimated
Fri 04:12:00 PM 18.4297 -69.6689 150° Southeast  Level Estimated
Fri 04:13:00 PM 18.4297 -69.6689 150° Southeast  Level Estimated
Fri 04:14:00 PM 18.4297 -69.6689 150° Southeast  Level Estimated
Fri 04:15:00 PM 18.4297 -69.6689 150° Southeast  Level Estimated
Fri 04:16:00 PM 18.4297 -69.6689 150° Southeast  Level Estimated
Fri 04:17:00 PM 18.4297 -69.6689 150° Southeast  Level Estimated
Fri 04:18:00 PM 18.4297 -69.6689 150° Southeast  Level Estimated

Login

Don't have an account? Register now (free) for customized features, flight alerts, and more!